Neptune Beach, FL

03:45 EDT le 02 avril 2015 (GMT -0400)
Atlantic Beach, Florida | | Change Station
CLOSE
Current Station
Stations météorologiques personnelles
Location: Atlantic Beach, FL
Altitude: 12 ft
Stations météo à proximité

Alt. 12 ft 30.33 °N, 81.40 °W | Updated 4 minutes ago

Partiellement nuageux
Partiellement nuageux
60.6 ° F
Paraît 60.6 ° F
N
0.0
Vent Variable Vent de OSO

Aujourd'hui
Haut(e) -- | Bas -- ° F
--% Risque de précip.
Hier
Haut(e) -- | Bas -- ° F
Precip. -- pouce
7:13 AM 7:45 PM
Lune gibbeuse croissante, 96% visible
Pression 30.17 pouce
Visibilité 8.0 Miles terrestres
Nuages Ciel dégagé
Point de rosée 58 ° F
Humidité 90%
Précipitations 0.00 pouce
Profondeur de la couche neigeuse Non disponible.
UV 0 sur 12
Pollen 9.80 sur 12
Qualité de l'air Non disponible.
Flu Activity Non disponible.
METAR KNRB 020652Z AUTO 35003KT 8SM CLR 17/16 A3016 RMK AO2 SLP214 T01720161 TSNO $

More Conditions Fewer Conditions

Pression 30.17 pouce
Visibilité 8.0 Miles terrestres
Nuages Ciel dégagé
Point de rosée 58 ° F
Humidité 90%
Précipitations 0.00 pouce
Profondeur de la couche neigeuse Non disponible.
UV 0 sur 12
Pollen 9.80 sur 12
Qualité de l'air Non disponible.
Flu Activity Non disponible.
METAR KNRB 020652Z AUTO 35003KT 8SM CLR 17/16 A3016 RMK AO2 SLP214 T01720161 TSNO $

More Conditions Fewer Conditions

10-Day Weather Forecast

Almanac

Astronomie

Apr. 02, 2015 Lever Coucher
Temps réel
Crépuscule civil
Crépuscule nautique
Crépuscule astronomique
Lune
Durée de lumière visible
Longueur du jour
Tomorrow will be .
, % of the Moon is Illuminated

Extrêmes aujourd'hui

State Highs State Lows

Community

WunderPhotos

Upload Photos

1,810,206 Photos téléchargées !

WunderBlogs® & News

Nearby

Qualité de l'air

  Qualité de l'air Indice de la qualité de l'air Polluant
Not available.

Épaisseur de neige

Station Depth Altitude

Activité sismique

Ville Distance Mag. Time & Date
Minimum magnitude displayed is 2.5.

Températures des eaux côtières

Lieu Température

Stations

Stations météo à proximité

Emplacement de la station Température Refroidissement éolien Point de rosée Humidité Vent Precip. Alt. Mise à jour Type